createdAt,value
2023-09-30T00:00:39.272Z,23.85
2023-09-30T00:03:42.986Z,23.84
2023-09-30T00:06:46.193Z,23.83
2023-09-30T00:09:49.438Z,23.84
2023-09-30T00:12:54.006Z,23.83
2023-09-30T00:15:57.035Z,23.83
2023-09-30T00:19:00.621Z,23.84
2023-09-30T00:22:03.774Z,23.82
2023-09-30T00:25:08.264Z,23.82
2023-09-30T00:28:12.712Z,23.79
2023-09-30T00:31:15.831Z,23.82
2023-09-30T00:34:19.010Z,23.81
2023-09-30T00:37:22.510Z,23.81
2023-09-30T00:40:25.570Z,23.81
2023-09-30T00:43:30.068Z,23.79
2023-09-30T00:46:34.449Z,23.77
2023-09-30T00:49:37.625Z,23.79
2023-09-30T00:52:41.598Z,23.80
2023-09-30T00:55:44.823Z,23.78
2023-09-30T00:58:52.427Z,23.77
2023-09-30T01:01:59.105Z,23.78
2023-09-30T01:05:03.534Z,23.78
2023-09-30T01:08:07.171Z,23.77
2023-09-30T01:11:11.343Z,23.66
2023-09-30T01:14:29.227Z,23.79
2023-09-30T01:17:33.118Z,23.78
2023-09-30T01:20:36.270Z,23.77
2023-09-30T01:23:41.191Z,23.77
2023-09-30T01:26:44.730Z,23.77
2023-09-30T01:29:48.797Z,23.80
2023-09-30T01:32:52.029Z,23.74
2023-09-30T01:35:55.309Z,23.76
2023-09-30T01:38:59.952Z,23.77
2023-09-30T01:42:03.096Z,23.76
2023-09-30T01:45:07.276Z,23.76
2023-09-30T01:48:12.385Z,23.76
2023-09-30T01:51:15.594Z,23.77
2023-09-30T01:54:20.241Z,23.77
2023-09-30T01:57:23.397Z,23.75
2023-09-30T02:00:26.778Z,23.75
2023-09-30T02:03:30.536Z,23.75
2023-09-30T02:06:33.844Z,23.75
2023-09-30T02:09:38.666Z,23.76
2023-09-30T02:12:41.777Z,23.74
2023-09-30T02:15:45.279Z,23.73
2023-09-30T02:18:53.224Z,23.73
2023-09-30T02:21:56.339Z,23.74
2023-09-30T02:25:00.816Z,23.75
2023-09-30T02:28:03.925Z,23.76
2023-09-30T02:31:08.498Z,23.74
2023-09-30T02:34:11.591Z,23.74
2023-09-30T02:37:14.780Z,23.72
2023-09-30T02:40:20.162Z,23.72
2023-09-30T02:43:23.200Z,23.73
2023-09-30T02:46:29.311Z,23.72
2023-09-30T02:49:35.116Z,23.72
2023-09-30T02:52:40.274Z,23.71
2023-09-30T02:55:44.998Z,23.71
2023-09-30T02:58:48.529Z,23.73
2023-09-30T03:01:51.749Z,23.70
2023-09-30T03:04:55.033Z,23.71
2023-09-30T03:07:58.722Z,23.70
2023-09-30T03:11:03.141Z,23.71
2023-09-30T03:14:08.918Z,23.70
2023-09-30T03:17:13.244Z,23.70
2023-09-30T03:20:20.486Z,23.69
2023-09-30T03:23:23.531Z,23.68
2023-09-30T03:26:30.821Z,23.71
2023-09-30T03:29:33.908Z,23.69
2023-09-30T03:32:39.279Z,23.71
2023-09-30T03:35:42.932Z,23.68
2023-09-30T03:38:45.988Z,23.67
2023-09-30T03:41:50.600Z,23.70
2023-09-30T03:44:53.725Z,23.68
2023-09-30T03:47:56.840Z,23.69
2023-09-30T03:50:59.915Z,23.67
2023-09-30T03:54:04.070Z,23.70
2023-09-30T03:57:09.021Z,23.67
2023-09-30T04:00:17.583Z,23.67
2023-09-30T04:03:20.749Z,23.67
2023-09-30T04:06:23.975Z,23.66
2023-09-30T04:09:27.080Z,23.69
2023-09-30T04:12:33.880Z,23.66
2023-09-30T04:15:38.551Z,23.58
2023-09-30T04:18:42.528Z,23.64
2023-09-30T04:21:45.653Z,23.65
2023-09-30T04:24:51.293Z,23.65
2023-09-30T04:27:58.544Z,23.60
2023-09-30T04:31:02.059Z,23.65
2023-09-30T04:34:05.915Z,23.63
2023-09-30T04:37:10.362Z,23.62
2023-09-30T04:40:17.189Z,23.66
2023-09-30T04:43:22.393Z,23.60
2023-09-30T04:46:25.668Z,23.64
2023-09-30T04:49:28.730Z,23.63
2023-09-30T04:52:32.134Z,23.64
2023-09-30T04:55:35.229Z,23.62
2023-09-30T04:58:39.648Z,23.61
2023-09-30T05:01:42.740Z,23.62
2023-09-30T05:04:45.901Z,23.60
2023-09-30T05:07:49.559Z,23.60
2023-09-30T05:10:52.991Z,23.61
2023-09-30T05:13:57.613Z,23.61
2023-09-30T05:17:00.958Z,23.62
2023-09-30T05:20:08.137Z,23.61
2023-09-30T05:23:13.601Z,23.62
2023-09-30T05:26:16.784Z,23.60
2023-09-30T05:29:21.514Z,23.61
2023-09-30T05:32:24.786Z,23.61
2023-09-30T05:35:29.056Z,23.60
2023-09-30T05:38:32.852Z,23.60
2023-09-30T05:41:35.964Z,23.63
2023-09-30T05:44:40.464Z,23.64
2023-09-30T05:47:45.541Z,23.64
2023-09-30T05:50:48.716Z,23.61
2023-09-30T05:53:51.757Z,23.67
2023-09-30T05:56:54.861Z,23.61
2023-09-30T05:59:59.543Z,23.65
2023-09-30T06:03:02.647Z,23.78
2023-09-30T06:06:06.195Z,23.78
2023-09-30T06:09:09.663Z,23.84
2023-09-30T06:12:13.156Z,23.90
2023-09-30T06:15:23.172Z,24.02
2023-09-30T06:18:26.686Z,24.15
2023-09-30T06:21:30.784Z,24.29
2023-09-30T06:24:33.910Z,24.39
2023-09-30T06:27:37.112Z,24.50
2023-09-30T06:30:44.225Z,24.58
2023-09-30T06:33:47.354Z,24.69
2023-09-30T06:36:50.818Z,24.77
2023-09-30T06:39:54.453Z,24.88
2023-09-30T06:42:58.396Z,24.92
2023-09-30T06:46:09.462Z,24.94
2023-09-30T06:49:12.557Z,24.98
2023-09-30T06:52:15.624Z,25.01
2023-09-30T06:55:18.769Z,25.13
2023-09-30T06:58:22.652Z,25.18
2023-09-30T07:01:27.321Z,25.27
2023-09-30T07:04:32.338Z,25.30
2023-09-30T07:07:35.490Z,25.32
2023-09-30T07:10:38.970Z,25.34
2023-09-30T07:13:42.098Z,25.37
2023-09-30T07:16:46.603Z,25.38
2023-09-30T07:19:49.776Z,25.41
2023-09-30T07:23:06.991Z,25.45
2023-09-30T07:26:15.834Z,25.49
2023-09-30T07:29:18.918Z,25.50
2023-09-30T07:32:24.858Z,25.54
2023-09-30T07:35:28.454Z,25.56
2023-09-30T07:38:31.535Z,25.58
2023-09-30T07:41:37.942Z,25.61
2023-09-30T07:44:41.087Z,25.58
2023-09-30T07:47:47.692Z,25.66
2023-09-30T07:50:50.795Z,25.67
2023-09-30T07:53:54.450Z,25.70
2023-09-30T07:56:59.104Z,25.70
2023-09-30T08:00:02.158Z,25.73
2023-09-30T08:03:07.661Z,25.74
2023-09-30T08:06:11.046Z,25.77
2023-09-30T08:09:15.401Z,25.79
2023-09-30T08:12:18.630Z,25.79
2023-09-30T08:15:21.920Z,25.81
2023-09-30T08:18:26.478Z,25.81
2023-09-30T08:21:29.964Z,25.83
2023-09-30T08:24:33.112Z,25.84
2023-09-30T08:27:36.705Z,25.84
2023-09-30T08:30:40.472Z,25.87
2023-09-30T08:33:47.000Z,25.85
2023-09-30T08:36:50.346Z,25.86
2023-09-30T08:39:53.880Z,25.86
2023-09-30T08:42:57.212Z,25.85
2023-09-30T08:46:01.321Z,25.84
2023-09-30T08:49:08.194Z,25.84
2023-09-30T08:52:12.867Z,25.85
2023-09-30T08:55:15.907Z,25.82
2023-09-30T08:58:20.901Z,25.80
2023-09-30T09:01:24.895Z,25.78
2023-09-30T09:04:30.217Z,25.74
2023-09-30T09:07:34.283Z,25.76
2023-09-30T09:10:37.821Z,25.72
2023-09-30T09:13:50.651Z,25.74
2023-09-30T09:16:55.422Z,25.72
2023-09-30T09:20:06.181Z,25.71
2023-09-30T09:23:09.889Z,25.75
2023-09-30T09:26:13.317Z,25.74
2023-09-30T09:29:16.321Z,25.76
2023-09-30T09:32:20.346Z,25.71
2023-09-30T09:35:26.717Z,25.75
2023-09-30T09:38:46.338Z,25.77
2023-09-30T09:41:53.958Z,25.75
2023-09-30T09:44:59.011Z,25.79
2023-09-30T09:48:02.287Z,25.81
2023-09-30T09:51:08.344Z,25.80
2023-09-30T09:54:11.961Z,25.79
2023-09-30T09:57:15.514Z,25.78
2023-09-30T10:00:22.091Z,25.79
2023-09-30T10:03:25.487Z,25.81
2023-09-30T10:06:30.424Z,25.79
2023-09-30T10:09:36.581Z,25.79
2023-09-30T10:12:40.736Z,25.77
2023-09-30T10:15:44.059Z,25.78
2023-09-30T10:19:09.769Z,25.77
2023-09-30T10:22:32.184Z,25.77
2023-09-30T10:25:37.022Z,25.77
2023-09-30T10:28:42.191Z,25.76
2023-09-30T10:31:52.468Z,25.75
2023-09-30T10:34:56.284Z,25.74
2023-09-30T10:38:32.657Z,25.74
2023-09-30T10:41:55.575Z,25.73
2023-09-30T10:44:58.728Z,25.71
2023-09-30T10:48:42.677Z,25.67
2023-09-30T10:51:48.192Z,25.66
2023-09-30T10:54:51.904Z,25.64
2023-09-30T10:57:57.093Z,25.60
2023-09-30T11:01:00.326Z,25.61
2023-09-30T11:04:06.862Z,25.60
2023-09-30T11:07:10.392Z,25.57
2023-09-30T11:10:13.777Z,25.56
2023-09-30T11:13:18.278Z,25.52
2023-09-30T11:16:21.722Z,25.54
2023-09-30T11:19:25.762Z,25.52
2023-09-30T11:22:29.476Z,25.50
2023-09-30T11:25:38.767Z,25.48
2023-09-30T11:28:44.711Z,25.46
2023-09-30T11:31:49.348Z,25.42
2023-09-30T11:34:52.681Z,25.44
2023-09-30T11:37:55.938Z,25.43
2023-09-30T11:41:03.735Z,25.40
2023-09-30T11:44:13.979Z,25.39
2023-09-30T11:47:18.040Z,25.37
2023-09-30T11:50:21.171Z,25.37
2023-09-30T11:53:24.341Z,25.35
2023-09-30T11:56:30.777Z,25.34
2023-09-30T11:59:37.559Z,25.41
2023-09-30T12:02:41.889Z,25.41
2023-09-30T12:05:47.023Z,25.41
2023-09-30T12:08:52.796Z,25.39
2023-09-30T12:11:56.913Z,25.38
2023-09-30T12:15:01.398Z,25.41
2023-09-30T12:18:07.399Z,25.40
2023-09-30T12:21:12.095Z,25.41
2023-09-30T12:24:17.507Z,25.40
2023-09-30T12:27:20.558Z,25.36
2023-09-30T12:30:25.171Z,25.31
2023-09-30T12:33:29.542Z,25.30
2023-09-30T12:36:33.934Z,25.22
2023-09-30T12:39:37.992Z,25.22
2023-09-30T12:42:41.218Z,25.25
2023-09-30T12:45:46.761Z,25.23
2023-09-30T12:48:50.629Z,25.14
2023-09-30T12:51:53.771Z,25.22
2023-09-30T12:54:56.940Z,25.21
2023-09-30T12:58:01.087Z,25.20
2023-09-30T13:01:22.423Z,25.20
2023-09-30T13:04:26.725Z,25.17
2023-09-30T13:07:30.494Z,25.16
2023-09-30T13:10:33.561Z,25.16
2023-09-30T13:13:37.176Z,25.14
2023-09-30T13:16:41.636Z,25.15
2023-09-30T13:19:44.792Z,25.15
2023-09-30T13:22:48.661Z,25.12
2023-09-30T13:25:51.773Z,25.20
2023-09-30T13:28:55.396Z,25.14
2023-09-30T13:32:00.296Z,25.21
2023-09-30T13:35:03.531Z,25.22
2023-09-30T13:38:06.854Z,25.22
2023-09-30T13:41:10.028Z,25.24
2023-09-30T13:44:13.264Z,25.24
2023-09-30T13:47:17.980Z,25.23
2023-09-30T13:50:21.051Z,25.24
2023-09-30T13:53:24.185Z,25.22
2023-09-30T13:56:28.832Z,25.25
2023-09-30T13:59:31.953Z,25.23
2023-09-30T14:02:37.249Z,25.23
2023-09-30T14:05:40.894Z,25.23
2023-09-30T14:08:44.821Z,25.18
2023-09-30T14:11:49.127Z,25.17
2023-09-30T14:14:52.746Z,25.11
2023-09-30T14:17:57.593Z,25.07
2023-09-30T14:21:00.772Z,25.06
2023-09-30T14:24:04.220Z,25.06
2023-09-30T14:27:08.587Z,25.07
2023-09-30T14:30:12.680Z,25.06
2023-09-30T14:33:17.272Z,25.04
2023-09-30T14:36:20.521Z,25.03
2023-09-30T14:39:24.343Z,25.03
2023-09-30T14:42:27.468Z,25.00
2023-09-30T14:45:32.540Z,25.01
2023-09-30T14:48:38.057Z,25.01
2023-09-30T14:51:41.161Z,24.99
2023-09-30T14:54:44.451Z,24.99
2023-09-30T14:57:48.434Z,25.00
2023-09-30T15:00:51.546Z,24.97
2023-09-30T15:03:56.490Z,24.99
2023-09-30T15:06:59.746Z,24.97
2023-09-30T15:10:03.024Z,24.96
2023-09-30T15:13:06.728Z,24.94
2023-09-30T15:16:17.616Z,24.93
2023-09-30T15:19:22.494Z,24.91
2023-09-30T15:22:25.827Z,24.91
2023-09-30T15:25:28.894Z,24.91
2023-09-30T15:28:32.087Z,24.91
2023-09-30T15:31:35.300Z,24.90
2023-09-30T15:34:41.369Z,24.90
2023-09-30T15:37:44.494Z,24.87
2023-09-30T15:40:55.118Z,24.87
2023-09-30T15:44:01.679Z,24.88
2023-09-30T15:47:07.463Z,24.90
2023-09-30T15:50:13.037Z,24.88
2023-09-30T15:53:16.924Z,24.86
2023-09-30T15:56:20.046Z,24.86
2023-09-30T15:59:23.138Z,24.87
2023-09-30T16:02:26.219Z,24.85
2023-09-30T16:05:30.852Z,24.83
2023-09-30T16:08:34.061Z,24.83
2023-09-30T16:11:37.314Z,24.83
2023-09-30T16:14:40.345Z,24.83
2023-09-30T16:17:43.488Z,24.82
2023-09-30T16:20:48.686Z,24.81
2023-09-30T16:23:51.877Z,24.80
2023-09-30T16:26:55.048Z,24.79
2023-09-30T16:29:58.171Z,24.78
2023-09-30T16:33:01.450Z,24.77
2023-09-30T16:36:08.082Z,24.77
2023-09-30T16:39:11.222Z,24.76
2023-09-30T16:42:14.182Z,24.75
2023-09-30T16:45:17.458Z,24.75
2023-09-30T16:48:21.075Z,24.75
2023-09-30T16:51:25.729Z,24.74
2023-09-30T16:54:28.994Z,24.71
2023-09-30T16:57:32.386Z,24.73
2023-09-30T17:00:35.660Z,24.74
2023-09-30T17:03:39.070Z,24.72
2023-09-30T17:06:43.894Z,24.72
2023-09-30T17:09:47.046Z,24.72
2023-09-30T17:12:51.774Z,24.69
2023-09-30T17:15:54.981Z,24.71
2023-09-30T17:18:58.294Z,24.69
2023-09-30T17:22:03.030Z,24.71
2023-09-30T17:25:07.101Z,24.68
2023-09-30T17:28:11.227Z,24.69
2023-09-30T17:31:14.714Z,24.66
2023-09-30T17:34:18.952Z,24.67
2023-09-30T17:37:24.346Z,24.67
2023-09-30T17:40:27.575Z,24.67
2023-09-30T17:43:30.846Z,24.65
2023-09-30T17:46:34.189Z,24.66
2023-09-30T17:49:37.653Z,24.65
2023-09-30T17:52:42.062Z,24.65
2023-09-30T17:55:45.333Z,24.66
2023-09-30T17:58:48.926Z,24.64
2023-09-30T18:01:52.109Z,24.62
2023-09-30T18:04:55.965Z,24.62
2023-09-30T18:08:00.914Z,24.60
2023-09-30T18:11:04.484Z,24.63
2023-09-30T18:14:08.552Z,24.61
2023-09-30T18:17:11.719Z,24.61
2023-09-30T18:20:14.865Z,24.61
2023-09-30T18:23:19.545Z,24.58
2023-09-30T18:26:22.764Z,24.59
2023-09-30T18:29:26.735Z,24.59
2023-09-30T18:32:30.277Z,24.58
2023-09-30T18:35:33.565Z,24.57
2023-09-30T18:38:38.961Z,24.58
2023-09-30T18:41:42.512Z,24.57
2023-09-30T18:44:45.880Z,24.46
2023-09-30T18:47:51.551Z,24.56
2023-09-30T18:50:54.695Z,24.54
2023-09-30T18:53:59.621Z,24.54
2023-09-30T18:57:02.813Z,24.55
2023-09-30T19:00:07.428Z,24.54
2023-09-30T19:03:11.277Z,24.52
2023-09-30T19:06:14.632Z,24.54
2023-09-30T19:09:19.317Z,24.51
2023-09-30T19:12:22.512Z,24.50
2023-09-30T19:15:26.064Z,24.50
2023-09-30T19:18:29.375Z,24.49
2023-09-30T19:21:34.615Z,24.49
2023-09-30T19:24:39.729Z,24.46
2023-09-30T19:27:43.243Z,24.49
2023-09-30T19:30:46.949Z,24.48
2023-09-30T19:33:53.854Z,24.48
2023-09-30T19:36:57.073Z,24.47
2023-09-30T19:40:02.313Z,24.47
2023-09-30T19:43:06.108Z,24.46
2023-09-30T19:46:09.311Z,24.44
2023-09-30T19:49:12.606Z,24.45
2023-09-30T19:52:15.815Z,24.46
2023-09-30T19:55:20.580Z,24.45
2023-09-30T19:58:24.515Z,24.45
2023-09-30T20:01:27.827Z,24.46
2023-09-30T20:04:31.039Z,24.45
2023-09-30T20:07:34.569Z,24.44
2023-09-30T20:10:39.288Z,24.42
2023-09-30T20:13:42.401Z,24.44
2023-09-30T20:16:47.129Z,24.45
2023-09-30T20:19:50.439Z,24.44
2023-09-30T20:22:53.816Z,24.44
2023-09-30T20:25:58.432Z,24.43
2023-09-30T20:29:02.838Z,24.41
2023-09-30T20:32:06.581Z,24.41
2023-09-30T20:35:10.697Z,24.41
2023-09-30T20:38:14.139Z,24.40
2023-09-30T20:41:19.620Z,24.38
2023-09-30T20:44:22.745Z,24.39
2023-09-30T20:47:26.046Z,24.39
2023-09-30T20:50:29.076Z,24.39
2023-09-30T20:53:33.713Z,24.36
2023-09-30T20:56:38.401Z,24.37
2023-09-30T20:59:41.726Z,24.35
2023-09-30T21:02:45.082Z,24.36
2023-09-30T21:05:48.421Z,24.36
2023-09-30T21:08:52.976Z,24.36
2023-09-30T21:12:00.080Z,24.35
2023-09-30T21:15:03.305Z,24.35
2023-09-30T21:18:06.811Z,24.31
2023-09-30T21:21:12.889Z,24.34
2023-09-30T21:24:15.905Z,24.32
2023-09-30T21:27:20.495Z,24.33
2023-09-30T21:30:23.624Z,24.33
2023-09-30T21:33:26.733Z,24.33
2023-09-30T21:36:29.963Z,24.32
2023-09-30T21:39:33.105Z,24.33
2023-09-30T21:42:38.122Z,24.30
2023-09-30T21:45:41.237Z,24.31
2023-09-30T21:48:44.743Z,24.30
2023-09-30T21:51:49.937Z,24.30
2023-09-30T21:54:53.291Z,24.30
2023-09-30T21:57:58.221Z,24.30
2023-09-30T22:01:02.220Z,24.29
2023-09-30T22:04:06.246Z,24.29
2023-09-30T22:07:09.476Z,24.29
2023-09-30T22:10:15.337Z,24.29
2023-09-30T22:13:20.630Z,24.28
2023-09-30T22:16:24.688Z,24.27
2023-09-30T22:19:28.794Z,24.27
2023-09-30T22:22:33.227Z,24.26
2023-09-30T22:25:36.912Z,24.27
2023-09-30T22:28:41.431Z,24.27
2023-09-30T22:31:44.969Z,24.27
2023-09-30T22:34:48.107Z,24.26
2023-09-30T22:37:52.089Z,24.25
2023-09-30T22:40:55.447Z,24.26
2023-09-30T22:43:59.944Z,24.24
2023-09-30T22:47:04.013Z,24.24
2023-09-30T22:50:08.268Z,24.24
2023-09-30T22:53:12.112Z,24.23
2023-09-30T22:56:21.674Z,24.24
2023-09-30T22:59:26.384Z,24.23
2023-09-30T23:02:29.548Z,24.23
2023-09-30T23:05:33.828Z,24.22
2023-09-30T23:08:37.179Z,24.20
2023-09-30T23:11:40.837Z,24.21
2023-09-30T23:14:45.278Z,24.18
2023-09-30T23:17:50.556Z,24.20
2023-09-30T23:20:54.407Z,24.21
2023-09-30T23:23:57.682Z,24.18
2023-09-30T23:27:05.794Z,24.19
2023-09-30T23:30:15.781Z,24.18
2023-09-30T23:33:20.235Z,24.16
2023-09-30T23:36:23.636Z,24.17
2023-09-30T23:39:27.400Z,24.16
2023-09-30T23:42:30.630Z,24.17
2023-09-30T23:45:39.107Z,24.16
2023-09-30T23:48:42.722Z,24.15
2023-09-30T23:51:46.316Z,24.14
2023-09-30T23:54:50.232Z,24.14
2023-09-30T23:57:55.093Z,24.13
